Flight Track Log - Related Links

Times and Time Zones

All times are in EDT time to prevent confusion due to time zone crossing. See the SWA1903 flight status page for this flight to view local times or setup timezone preferences in your user account.

Time Position Orientation Groundspeed Altitude Reporting Facility
EDT Latitude Longitude Course Direction KTS MPH feet Rate Location/Type
Wed 02:59:29 PM 33.4333 -112.0500 270° West 162 186 2,700  Level Phoenix TRACON
Wed 03:00:29 PM 33.4333 -112.1167 270° West 219 252 4,200 2,097 Climbing Phoenix TRACON
Wed 03:01:12 PM 33.4372 -112.1625 276° West 225 259 6,300 2,914 Climbing Albuquerque Center
Wed 03:02:14 PM 33.4997 -112.1786 348° North 286 329 9,300 2,613 Climbing Albuquerque Center
Wed 03:03:16 PM 33.5878 -112.1503 15° North 330 380 11,700 2,780 Climbing Albuquerque Center
Wed 03:04:17 PM 33.6753 -112.0836 32° Northeast 374 430 15,000 3,073 Climbing Albuquerque Center
Wed 03:05:19 PM 33.7606 -112.0031 38° Northeast 388 447 18,000 2,903 Climbing Albuquerque Center
Wed 03:06:21 PM 33.8692 -111.9019 38° Northeast 403 464 21,000 2,195 Climbing Albuquerque Center
Wed 03:07:22 PM 33.9608 -111.8206 36° Northeast 411 473 22,500 1,756 Climbing Albuquerque Center
Wed 03:08:24 PM 34.0758 -111.8350 354° North 418 481 24,600 2,081 Climbing Albuquerque Center
Wed 03:09:26 PM 34.2011 -111.8544 353° North 423 487 26,800 1,920 Climbing Albuquerque Center
Wed 03:10:29 PM 34.3203 -111.8739 352° North 439 505 28,600 2,098 Climbing Albuquerque Center
Wed 03:11:29 PM 34.4431 -111.8936 352° North 444 511 31,100 2,213 Climbing Albuquerque Center
Wed 03:12:31 PM 34.5614 -111.9136 352° North 435 501 33,100 1,403 Climbing Albuquerque Center
Wed 03:13:33 PM 34.6792 -111.9333 352° North 429 494 34,000 439 Climbing Albuquerque Center
Wed 03:14:34 PM 34.8003 -111.9539 352° North 431 496 34,000  Level Albuquerque Center
Wed 03:15:36 PM 34.9181 -111.9722 353° North 432 497 34,000  Level Albuquerque Center
Wed 03:16:38 PM 35.0575 -111.9936 353° North 428 493 34,000  Level Albuquerque Center
Wed 03:17:40 PM 35.1708 -112.0144 351° North 422 486 34,000  Level Albuquerque Center
Wed 03:18:41 PM 35.2878 -112.0272 355° North 424 488 34,000  Level Albuquerque Center
Wed 03:19:43 PM 35.4058 -112.0394 355° North 428 493 34,000  Level Albuquerque Center
Wed 03:20:45 PM 35.5231 -112.0533 354° North 427 491 34,000  Level Albuquerque Center
Wed 03:21:47 PM 35.6633 -112.0689 355° North 426 490 34,000  Level Albuquerque Center
Wed 03:22:39 PM 35.7569 -112.0789 355° North 426 490 34,000  Level Los Angeles Center
Wed 03:23:41 PM 35.8744 -112.0911 355° North 426 490 34,000  Level Los Angeles Center
Wed 03:24:43 PM 35.9919 -112.1039 355° North 427 491 34,000  Level Los Angeles Center
Wed 03:25:44 PM 36.1094 -112.1181 354° North 427 491 34,000  Level Los Angeles Center
Wed 03:26:47 PM 36.2369 -112.1322 355° North 426 490 34,000  Level Los Angeles Center
Wed 03:27:49 PM 36.3778 -112.1489 355° North 424 488 34,000  Level Los Angeles Center
Wed 03:28:51 PM 36.4956 -112.1619 355° North 425 489 34,000  Level Los Angeles Center
Wed 03:29:53 PM 36.6117 -112.1764 354° North 421 484 34,000  Level Los Angeles Center
Wed 03:30:55 PM 36.7289 -112.1894 355° North 423 487 34,000  Level Los Angeles Center
Wed 03:31:57 PM 36.8444 -112.2031 355° North 419 482 34,000  Level Los Angeles Center
Wed 03:32:59 PM 36.9589 -112.2161 355° North 415 478 34,000  Level Los Angeles Center
Wed 03:34:01 PM 37.0972 -112.2325 355° North 417 480 34,000  Level Los Angeles Center
Wed 03:35:03 PM 37.2103 -112.2458 355° North 411 473 34,000  Level Los Angeles Center
Wed 03:36:05 PM 37.3244 -112.2600 354° North 414 476 34,000  Level Los Angeles Center
Wed 03:36:50 PM 37.4172 -112.2714 354° North 419 482 34,000  Level Salt Lake Center
Wed 03:37:52 PM 37.5344 -112.2853 355° North 423 487 34,000 -390 Level Salt Lake Center
Wed 03:38:53 PM 37.6506 -112.3003 354° North 424 488 33,200 -829 Descending Salt Lake Center
Wed 03:39:55 PM 37.7658 -112.3133 355° North 421 484 32,300 -581 Descending Salt Lake Center
Wed 03:40:57 PM 37.9050 -112.3314 354° North 421 484 32,000 -145 Descending Salt Lake Center
Wed 03:41:59 PM 38.0217 -112.3472 354° North 423 487 32,000  Level Salt Lake Center
Wed 03:43:00 PM 38.1381 -112.3617 354° North 422 486 32,000  Level Salt Lake Center
Wed 03:44:02 PM 38.2525 -112.3753 355° North 417 480 32,000  Level Salt Lake Center
Wed 03:45:04 PM 38.3700 -112.3903 354° North 423 487 32,000  Level Salt Lake Center
Wed 03:46:05 PM 38.4878 -112.4044 355° North 426 490 32,000  Level Salt Lake Center
Wed 03:47:07 PM 38.6319 -112.4222 354° North 433 498 32,000  Level Salt Lake Center
Wed 03:48:08 PM 38.7511 -112.4378 354° North 431 496 32,000  Level Salt Lake Center
Wed 03:49:10 PM 38.8700 -112.4508 355° North 430 495 32,000  Level Salt Lake Center
Wed 03:50:12 PM 38.9869 -112.4661 354° North 424 488 32,000  Level Salt Lake Center
Wed 03:51:13 PM 39.1022 -112.4533 North 415 478 32,000  Level Salt Lake Center
Wed 03:52:15 PM 39.2167 -112.4278 10° North 415 478 32,000 -726 Level Salt Lake Center
Wed 03:53:17 PM 39.3383 -112.4042 North 426 490 30,500 -1,951 Descending Salt Lake Center
Wed 03:54:18 PM 39.4547 -112.3794 North 423 487 28,000 -2,537 Descending Salt Lake Center
Wed 03:55:20 PM 39.5708 -112.3564 North 424 488 25,300 -2,806 Descending Salt Lake Center
Wed 03:56:22 PM 39.7008 -112.2906 21° North 414 476 22,200 -2,537 Descending Salt Lake Center
Wed 03:57:23 PM 39.8044 -112.2250 26° Northeast 416 479 20,100 -1,846 Descending Salt Lake Center
Wed 03:57:53 PM 39.8561 -112.2031 18° North 393 452 19,400 -1,355 Descending Salt Lake Center
Wed 03:58:25 PM 39.8978 -112.1658 34° Northeast 376 433 18,700 -1,592 Descending Salt Lake Center
Wed 03:58:42 PM 39.9267 -112.1572 13° North 362 417 18,100 -1,935 Descending Salt Lake Center
Wed 03:59:27 PM 39.9864 -112.1111 31° Northeast 356 410 16,700 -2,066 Descending Salt Lake Center
Wed 03:59:43 PM 40.0150 -112.1025 13° North 353 406 16,000 -1,574 Descending Salt Lake Center
Wed 04:00:28 PM 40.0719 -112.0586 31° Northeast 342 394 15,100 -896 Descending Salt Lake Center
Wed 04:00:50 PM 40.1072 -112.0464 15° North 333 383 15,000 -194 Descending Salt Lake Center
Wed 04:01:30 PM 40.1508 -112.0117 31° Northeast 314 361 14,900 -647 Descending Salt Lake Center
Wed 04:02:32 PM 40.2142 -111.9544 35° Northeast 285 328 13,900 -1,324 Descending Salt Lake Center
Wed 04:03:46 PM 40.2739 -111.8556 52° Northeast 259 298 11,900 -1,561 Descending Salt Lake Center
Wed 04:04:35 PM 40.3239 -111.8522 North 236 272 10,700 -1,081 Descending Salt Lake Center
Wed 04:05:37 PM 40.3833 -111.8892 335° Northwest 235 270 9,900 -439 Descending Salt Lake Center
Wed 04:06:38 PM 40.4431 -111.9242 336° Northwest 234 269 9,800 -537 Descending Salt Lake Center
Wed 04:07:40 PM 40.5083 -111.9317 355° North 234 269 8,800 -976 Descending Salt Lake Center
Wed 04:08:41 PM 40.5725 -111.9392 355° North 233 268 7,800 -1,008 Descending Salt Lake Center
Wed 04:09:51 PM 40.6503 -111.9506 354° North 219 252 6,600 -908 Descending Salt Lake Center
Wed 04:10:40 PM 40.6903 -111.9567 353° North 197 227 6,000 -887 Descending Salt Lake Center
Wed 04:11:46 PM 40.7422 -111.9594 358° North 160 184 4,900 -891 Descending Salt Lake Center
Wed 04:12:48 PM 40.7831 -111.9625 357° North 149 171 4,100 -774 Descending Salt Lake Center
Wed 04:14:00 PM 40.7833 -111.9667 North  Level FlightAware Approximate

Login

Don't have an account? Register now (free) for customized features, flight alerts, and more!